FLRK1: Cottonwood Riv, Florence, KS

Data processed at Thu May 23 2019 23:50


All information presented herein is the property of the government of the United States of America and may be revised or deleted at any time without prior notice.
Dissemination of this information without the expressed written consent of the Public Affairs Office, Tulsa District U.S. Army Corps of Engineers is strictly prohibited.
These data are gathered electronically and, as presented, have not undergone any form of quality control. These data are not guaranteed to be valid or correct.
Go to home page.
Go to station list.
Go to home page.

Upstream stations:

Downstream station:
Previous Day
Next Day
Current Day
    
SHEF ID:       FLRK1     COTTONWOOD R NR FLORENCE, KS
STATION TYPE:  
Regulating: Stage =    21.00, Flow =     9037

               PRECIP     STAGE  STAGE(2)  RIV-FLOW  BAT-LOAD
                   in        ft        ft       cfs      volt
              Ccp-Rev   Ccp-Rev   Ccp-Rev   Ccp-Rev   Ccp-Rev
(US/Central)
05/23 00:00      0.00     21.63      7.40      9479     13.12
05/23 01:00      0.00     21.17      6.57      9156     13.07
05/23 02:00      0.00     20.68      2.91      8815     13.07
05/23 03:00      0.00     20.15      2.91      8451     13.00
05/23 04:00      0.00     19.63      2.93      8098     13.00
05/23 05:00      0.00     19.17      2.94      7789     13.00
05/23 06:00      0.00     18.64      2.93      7501     12.95
05/23 07:00      0.00     18.14      2.91      7259     12.95
05/23 08:00      0.00     17.61      2.91      7003     13.00
05/23 09:00      0.00     17.12      2.91      6766     13.07
05/23 10:00      0.00     16.57      2.91      6500     13.53
05/23 11:00      0.00     16.05      2.91      6249     13.71
05/23 12:00      0.00     15.57      2.93      6017     13.59
05/23 13:00      0.00     15.06      2.91      5771     13.65
05/23 14:00      0.00     14.63      2.91      5564     13.59
05/23 15:00      0.00     14.17      2.91      5343     13.53
05/23 16:00      0.00     13.74      2.91      5136     13.59
05/23 17:00      0.00     13.36      2.90      4953     13.59
05/23 18:00      0.00     12.93      2.91      4747     13.48
05/23 19:00      0.00     12.46      2.91      4522     13.30
05/23 20:00      0.00     11.92      2.91      4263     13.24
05/23 21:00      0.00     11.28      2.91      3957     13.18
05/23 22:00      0.00     10.68      2.91      3671     13.12
05/23 23:00      0.00     10.04      2.90      3366     13.12